Check out our new PWSWeather beta!
PWSweather.com
Personal Weather Stations
Station Observations
ITROMSHA6
HarstadNO 9407

HarstadNO 9407

Lat: 68.7814767, Lon: 16.5297091

Elevation: 145

Station Type: Davis Vantage Pro2

Latest ConditionsUpdated 7:10:15 PM GMT+01:01 Monday, Feb 24, 2020
Currently Today's Max Today's Min Today's Average
Temperature 24.5°F-4.2°C 32.9°F0.5°C 24.3°F-4.3°C 29.6°F-1.3°C
Dew Point 22.5°F-5.3°C 31.3°F-0.4°C 22.3°F-5.4°C 27.6°F-2.4°C
Winds 1.0 mph WSW1.6 kmh WSW 13.0 mph -20.9 kmh - - 3.2 mph 5.1 kmh
Wind Gusts -- 21.0 mph33.8 kmh - -
Humidity 92% 95% 89% 92%
Pressure 29.32 in992.9 mb 29.32 in992.9 mb 28.89 in978.3 mb -
Precipitation - 0.02 in0.5 mm - -
Hour Temp Dew Point Humidity Winds Wind Gusts Pressure Precip Precip Rate Daily Precip Total
07:10 PM 24.5°F-4.2°C 22.5°F-5.3°C 92% 1.0 mph WSW1.6 kmh WSW -- 29.32 in992.9 mb 0.00 in0.0 mm 0.00 in0.0 mm 0.02 in0.5 mm
07:05 PM 24.3°F-4.3°C 22.3°F-5.4°C 92% 2.0 mph WSW3.2 kmh WSW 4.0 mph6.4 kmh 29.32 in992.9 mb 0.00 in0.0 mm 0.00 in0.0 mm 0.02 in0.5 mm
07:00 PM 24.7°F-4.1°C 22.6°F-5.2°C 92% 2.0 mph WSW3.2 kmh WSW -- 29.32 in992.9 mb 0.00 in0.0 mm 0.00 in0.0 mm 0.02 in0.5 mm
06:55 PM 24.7°F-4.1°C 22.6°F-5.2°C 92% 2.0 mph WSW3.2 kmh WSW -- 29.32 in992.9 mb 0.00 in0.0 mm 0.00 in0.0 mm 0.02 in0.5 mm
06:50 PM 24.8°F-4.0°C 22.8°F-5.1°C 92% Calm Calm -- 29.32 in992.9 mb 0.00 in0.0 mm 0.00 in0.0 mm 0.02 in0.5 mm
06:45 PM 24.6°F-4.1°C 22.6°F-5.2°C 92% 2.0 mph WSW3.2 kmh WSW -- 29.32 in992.9 mb 0.00 in0.0 mm 0.00 in0.0 mm 0.02 in0.5 mm
06:40 PM 24.3°F-4.3°C 22.3°F-5.4°C 92% 2.0 mph WSW3.2 kmh WSW 3.0 mph4.8 kmh 29.32 in992.9 mb 0.00 in0.0 mm 0.00 in0.0 mm 0.02 in0.5 mm
06:35 PM 24.4°F-4.2°C 22.3°F-5.4°C 91% 1.0 mph WSW1.6 kmh WSW -- 29.32 in992.9 mb 0.00 in0.0 mm 0.00 in0.0 mm 0.02 in0.5 mm
06:30 PM 24.8°F-4.0°C 22.8°F-5.1°C 92% Calm Calm -- 29.32 in992.9 mb 0.00 in0.0 mm 0.00 in0.0 mm 0.02 in0.5 mm
06:25 PM 24.9°F-3.9°C 23.0°F-5.0°C 92% 2.0 mph WSW3.2 kmh WSW -- 29.32 in992.9 mb 0.00 in0.0 mm 0.00 in0.0 mm 0.02 in0.5 mm
06:20 PM 25.0°F-3.9°C 23.0°F-5.0°C 92% 2.0 mph WSW3.2 kmh WSW -- 29.32 in992.9 mb 0.00 in0.0 mm 0.00 in0.0 mm 0.02 in0.5 mm
06:15 PM 25.2°F-3.8°C 23.2°F-4.9°C 92% 3.0 mph WSW4.8 kmh WSW 6.0 mph9.7 kmh 29.32 in992.9 mb 0.00 in0.0 mm 0.00 in0.0 mm 0.02 in0.5 mm
06:10 PM 25.4°F-3.7°C 23.4°F-4.8°C 92% 4.0 mph W6.4 kmh W -- 29.31 in992.6 mb 0.00 in0.0 mm 0.00 in0.0 mm 0.02 in0.5 mm
06:05 PM 25.6°F-3.6°C 23.5°F-4.7°C 92% 3.0 mph W4.8 kmh W -- 29.31 in992.6 mb 0.00 in0.0 mm 0.00 in0.0 mm 0.02 in0.5 mm
06:00 PM 26.0°F-3.3°C 24.1°F-4.4°C 92% 3.0 mph W4.8 kmh W -- 29.31 in992.6 mb 0.00 in0.0 mm 0.00 in0.0 mm 0.02 in0.5 mm
05:55 PM 26.1°F-3.3°C 24.1°F-4.4°C 92% 2.0 mph W3.2 kmh W -- 29.31 in992.6 mb 0.00 in0.0 mm 0.00 in0.0 mm 0.02 in0.5 mm
05:50 PM 26.1°F-3.3°C 24.1°F-4.4°C 92% Calm Calm 2.0 mph3.2 kmh 29.32 in992.9 mb 0.00 in0.0 mm 0.00 in0.0 mm 0.02 in0.5 mm
05:45 PM 26.1°F-3.3°C 24.1°F-4.4°C 92% 1.0 mph W1.6 kmh W -- 29.32 in992.9 mb 0.00 in0.0 mm 0.00 in0.0 mm 0.02 in0.5 mm
05:40 PM 26.1°F-3.3°C 24.1°F-4.4°C 92% Calm Calm -- 29.32 in992.9 mb 0.00 in0.0 mm 0.00 in0.0 mm 0.02 in0.5 mm
05:35 PM 26.1°F-3.3°C 24.3°F-4.3°C 93% Calm Calm -- 29.32 in992.9 mb 0.00 in0.0 mm 0.00 in0.0 mm 0.02 in0.5 mm
05:30 PM 26.0°F-3.3°C 24.3°F-4.3°C 93% Calm Calm -- 29.32 in992.9 mb 0.00 in0.0 mm 0.00 in0.0 mm 0.02 in0.5 mm
05:25 PM 25.9°F-3.4°C 23.9°F-4.5°C 92% 1.0 mph W1.6 kmh W 4.0 mph6.4 kmh 29.32 in992.9 mb 0.00 in0.0 mm 0.00 in0.0 mm 0.02 in0.5 mm
05:20 PM 25.9°F-3.4°C 24.1°F-4.4°C 93% 2.0 mph W3.2 kmh W -- 29.32 in992.9 mb 0.00 in0.0 mm 0.00 in0.0 mm 0.02 in0.5 mm
05:15 PM 25.7°F-3.5°C 23.7°F-4.6°C 92% 2.0 mph W3.2 kmh W -- 29.32 in992.9 mb 0.00 in0.0 mm 0.00 in0.0 mm 0.02 in0.5 mm
05:10 PM 25.6°F-3.6°C 23.5°F-4.7°C 92% 2.0 mph W3.2 kmh W -- 29.32 in992.9 mb 0.00 in0.0 mm 0.00 in0.0 mm 0.02 in0.5 mm
05:05 PM 25.6°F-3.6°C 23.5°F-4.7°C 92% 2.0 mph W3.2 kmh W -- 29.32 in992.9 mb 0.00 in0.0 mm 0.00 in0.0 mm 0.02 in0.5 mm
05:00 PM 25.6°F-3.6°C 23.5°F-4.7°C 92% 1.0 mph W1.6 kmh W 2.0 mph3.2 kmh 29.32 in992.9 mb 0.00 in0.0 mm 0.00 in0.0 mm 0.02 in0.5 mm
04:55 PM 25.6°F-3.6°C 23.5°F-4.7°C 92% Calm Calm -- 29.32 in992.9 mb 0.00 in0.0 mm 0.00 in0.0 mm 0.02 in0.5 mm
04:50 PM 25.8°F-3.4°C 23.9°F-4.5°C 92% 1.0 mph W1.6 kmh W -- 29.32 in992.9 mb 0.00 in0.0 mm 0.00 in0.0 mm 0.02 in0.5 mm
04:45 PM 25.7°F-3.5°C 23.7°F-4.6°C 92% 2.0 mph W3.2 kmh W -- 29.31 in992.6 mb 0.00 in0.0 mm 0.00 in0.0 mm 0.02 in0.5 mm
04:40 PM 25.7°F-3.5°C 23.7°F-4.6°C 92% 1.0 mph W1.6 kmh W -- 29.31 in992.6 mb 0.00 in0.0 mm 0.00 in0.0 mm 0.02 in0.5 mm
04:35 PM 25.7°F-3.5°C 23.7°F-4.6°C 92% 1.0 mph W1.6 kmh W 4.0 mph6.4 kmh 29.31 in992.6 mb 0.00 in0.0 mm 0.00 in0.0 mm 0.02 in0.5 mm
04:30 PM 25.8°F-3.4°C 23.9°F-4.5°C 92% Calm Calm -- 29.32 in992.9 mb 0.00 in0.0 mm 0.00 in0.0 mm 0.02 in0.5 mm
04:25 PM 26.0°F-3.3°C 24.1°F-4.4°C 92% Calm Calm -- 29.32 in992.9 mb 0.00 in0.0 mm 0.00 in0.0 mm 0.02 in0.5 mm
04:20 PM 26.2°F-3.2°C 24.3°F-4.3°C 92% Calm Calm -- 29.31 in992.6 mb 0.00 in0.0 mm 0.00 in0.0 mm 0.02 in0.5 mm
04:15 PM 26.5°F-3.1°C 24.4°F-4.2°C 92% 1.0 mph W1.6 kmh W -- 29.31 in992.6 mb 0.00 in0.0 mm 0.00 in0.0 mm 0.02 in0.5 mm
04:10 PM 26.9°F-2.8°C 25.0°F-3.9°C 92% Calm Calm 2.0 mph3.2 kmh 29.31 in992.6 mb 0.00 in0.0 mm 0.00 in0.0 mm 0.02 in0.5 mm
04:05 PM 27.1°F-2.7°C 25.2°F-3.8°C 92% Calm Calm -- 29.31 in992.6 mb 0.00 in0.0 mm 0.00 in0.0 mm 0.02 in0.5 mm
04:00 PM 27.5°F-2.5°C 25.5°F-3.6°C 92% Calm Calm -- 29.31 in992.6 mb 0.00 in0.0 mm 0.00 in0.0 mm 0.02 in0.5 mm
03:55 PM 27.7°F-2.4°C 25.7°F-3.5°C 92% Calm Calm -- 29.31 in992.6 mb 0.00 in0.0 mm 0.00 in0.0 mm 0.02 in0.5 mm
03:50 PM 27.8°F-2.3°C 25.9°F-3.4°C 92% Calm Calm -- 29.31 in992.6 mb 0.00 in0.0 mm 0.00 in0.0 mm 0.02 in0.5 mm
03:45 PM 27.9°F-2.3°C 25.9°F-3.4°C 92% Calm Calm 3.0 mph4.8 kmh 29.31 in992.6 mb 0.00 in0.0 mm 0.00 in0.0 mm 0.02 in0.5 mm
03:40 PM 28.0°F-2.2°C 26.1°F-3.3°C 92% Calm Calm -- 29.31 in992.6 mb 0.00 in0.0 mm 0.00 in0.0 mm 0.02 in0.5 mm
03:35 PM 28.0°F-2.2°C 26.1°F-3.3°C 92% 3.0 mph W4.8 kmh W -- 29.31 in992.6 mb 0.00 in0.0 mm 0.00 in0.0 mm 0.02 in0.5 mm
03:30 PM 28.1°F-2.2°C 26.1°F-3.3°C 92% 1.0 mph WSW1.6 kmh WSW -- 29.31 in992.6 mb 0.00 in0.0 mm 0.00 in0.0 mm 0.02 in0.5 mm
03:25 PM 28.2°F-2.1°C 25.9°F-3.4°C 91% 2.0 mph WSW3.2 kmh WSW -- 29.31 in992.6 mb 0.00 in0.0 mm 0.00 in0.0 mm 0.02 in0.5 mm
03:20 PM 28.4°F-2.0°C 26.4°F-3.1°C 92% 2.0 mph SW3.2 kmh SW 5.0 mph8.0 kmh 29.31 in992.6 mb 0.00 in0.0 mm 0.00 in0.0 mm 0.02 in0.5 mm
03:15 PM 28.5°F-1.9°C 26.6°F-3.0°C 92% 4.0 mph SW6.4 kmh SW -- 29.30 in992.2 mb 0.00 in0.0 mm 0.00 in0.0 mm 0.02 in0.5 mm
03:10 PM 28.5°F-1.9°C 26.6°F-3.0°C 92% 1.0 mph SSW1.6 kmh SSW -- 29.30 in992.2 mb 0.00 in0.0 mm 0.00 in0.0 mm 0.02 in0.5 mm
03:05 PM 28.5°F-1.9°C 26.6°F-3.0°C 92% 2.0 mph SW3.2 kmh SW -- 29.30 in992.2 mb 0.00 in0.0 mm 0.00 in0.0 mm 0.02 in0.5 mm
03:00 PM 28.4°F-2.0°C 26.4°F-3.1°C 92% 1.0 mph SW1.6 kmh SW -- 29.30 in992.2 mb 0.00 in0.0 mm 0.00 in0.0 mm 0.02 in0.5 mm
02:55 PM 28.5°F-1.9°C 26.2°F-3.2°C 91% 3.0 mph WSW4.8 kmh WSW 14.0 mph22.5 kmh 29.31 in992.6 mb 0.00 in0.0 mm 0.00 in0.0 mm 0.02 in0.5 mm
02:50 PM 28.6°F-1.9°C 26.2°F-3.2°C 91% 5.0 mph SW8.0 kmh SW -- 29.30 in992.2 mb 0.00 in0.0 mm 0.00 in0.0 mm 0.02 in0.5 mm
02:45 PM 28.7°F-1.8°C 26.2°F-3.2°C 90% 7.0 mph SSW11.3 kmh SSW -- 29.30 in992.2 mb 0.00 in0.0 mm 0.00 in0.0 mm 0.02 in0.5 mm
02:40 PM 28.9°F-1.7°C 26.4°F-3.1°C 90% 3.0 mph SW4.8 kmh SW -- 29.30 in992.2 mb 0.00 in0.0 mm 0.00 in0.0 mm 0.02 in0.5 mm
02:35 PM 29.0°F-1.7°C 26.4°F-3.1°C 90% 9.0 mph SW14.5 kmh SW -- 29.30 in992.2 mb 0.00 in0.0 mm 0.00 in0.0 mm 0.02 in0.5 mm
02:30 PM 29.0°F-1.7°C 26.1°F-3.3°C 89% 8.0 mph WSW12.9 kmh WSW 14.0 mph22.5 kmh 29.30 in992.2 mb 0.00 in0.0 mm 0.00 in0.0 mm 0.02 in0.5 mm
02:25 PM 28.6°F-1.9°C 26.1°F-3.3°C 90% 2.0 mph SW3.2 kmh SW -- 29.29 in991.9 mb 0.00 in0.0 mm 0.00 in0.0 mm 0.02 in0.5 mm
02:20 PM 28.4°F-2.0°C 25.9°F-3.4°C 90% 1.0 mph SW1.6 kmh SW -- 29.29 in991.9 mb 0.00 in0.0 mm 0.00 in0.0 mm 0.02 in0.5 mm
02:15 PM 28.4°F-2.0°C 25.5°F-3.6°C 89% 1.0 mph SW1.6 kmh SW -- 29.29 in991.9 mb 0.00 in0.0 mm 0.00 in0.0 mm 0.02 in0.5 mm
02:10 PM 28.6°F-1.9°C 25.7°F-3.5°C 89% 2.0 mph SW3.2 kmh SW -- 29.29 in991.9 mb 0.00 in0.0 mm 0.00 in0.0 mm 0.02 in0.5 mm
02:05 PM 28.8°F-1.8°C 26.2°F-3.2°C 90% 4.0 mph WSW6.4 kmh WSW 6.0 mph9.7 kmh 29.29 in991.9 mb 0.00 in0.0 mm 0.00 in0.0 mm 0.02 in0.5 mm
02:00 PM 28.9°F-1.7°C 26.4°F-3.1°C 90% 1.0 mph WSW1.6 kmh WSW -- 29.29 in991.9 mb 0.00 in0.0 mm 0.00 in0.0 mm 0.02 in0.5 mm
01:55 PM 29.0°F-1.7°C 26.6°F-3.0°C 91% 3.0 mph WSW4.8 kmh WSW -- 29.29 in991.9 mb 0.00 in0.0 mm 0.00 in0.0 mm 0.02 in0.5 mm
01:50 PM 29.0°F-1.7°C 26.6°F-3.0°C 91% 2.0 mph WSW3.2 kmh WSW -- 29.28 in991.5 mb 0.00 in0.0 mm 0.00 in0.0 mm 0.02 in0.5 mm
01:45 PM 29.3°F-1.5°C 27.0°F-2.8°C 91% 2.0 mph SW3.2 kmh SW -- 29.28 in991.5 mb 0.00 in0.0 mm 0.00 in0.0 mm 0.02 in0.5 mm
01:40 PM 29.4°F-1.4°C 27.1°F-2.7°C 91% 3.0 mph SSW4.8 kmh SSW 10.0 mph16.1 kmh 29.28 in991.5 mb 0.00 in0.0 mm 0.00 in0.0 mm 0.02 in0.5 mm
01:35 PM 29.3°F-1.5°C 27.3°F-2.6°C 92% 5.0 mph S8.0 kmh S -- 29.28 in991.5 mb 0.00 in0.0 mm 0.00 in0.0 mm 0.02 in0.5 mm
01:30 PM 29.3°F-1.5°C 27.3°F-2.6°C 92% 5.0 mph S8.0 kmh S -- 29.28 in991.5 mb 0.00 in0.0 mm 0.00 in0.0 mm 0.02 in0.5 mm
01:25 PM 29.2°F-1.6°C 27.3°F-2.6°C 93% 3.0 mph SW4.8 kmh SW -- 29.28 in991.5 mb 0.00 in0.0 mm 0.00 in0.0 mm 0.02 in0.5 mm
01:20 PM 29.3°F-1.5°C 27.5°F-2.5°C 93% 1.0 mph SW1.6 kmh SW -- 29.28 in991.5 mb 0.00 in0.0 mm 0.00 in0.0 mm 0.02 in0.5 mm
01:15 PM 29.4°F-1.4°C 27.7°F-2.4°C 93% 1.0 mph SW1.6 kmh SW 4.0 mph6.4 kmh 29.28 in991.5 mb 0.00 in0.0 mm 0.00 in0.0 mm 0.02 in0.5 mm
01:10 PM 29.5°F-1.4°C 27.7°F-2.4°C 93% 1.0 mph WSW1.6 kmh WSW -- 29.28 in991.5 mb 0.00 in0.0 mm 0.00 in0.0 mm 0.02 in0.5 mm
01:05 PM 29.5°F-1.4°C 27.7°F-2.4°C 93% 2.0 mph WSW3.2 kmh WSW -- 29.28 in991.5 mb 0.00 in0.0 mm 0.00 in0.0 mm 0.02 in0.5 mm
01:00 PM 29.4°F-1.4°C 27.7°F-2.4°C 93% Calm Calm -- 29.28 in991.5 mb 0.00 in0.0 mm 0.00 in0.0 mm 0.02 in0.5 mm
12:55 PM 29.3°F-1.5°C 27.5°F-2.5°C 93% Calm Calm -- 29.27 in991.2 mb 0.00 in0.0 mm 0.00 in0.0 mm 0.02 in0.5 mm
12:50 PM 29.1°F-1.6°C 27.3°F-2.6°C 93% Calm Calm 4.0 mph6.4 kmh 29.27 in991.2 mb 0.00 in0.0 mm 0.00 in0.0 mm 0.02 in0.5 mm
12:45 PM 29.1°F-1.6°C 27.3°F-2.6°C 93% 4.0 mph SW6.4 kmh SW -- 29.27 in991.2 mb 0.00 in0.0 mm 0.00 in0.0 mm 0.02 in0.5 mm
12:40 PM 29.1°F-1.6°C 27.3°F-2.6°C 93% Calm Calm -- 29.27 in991.2 mb 0.00 in0.0 mm 0.00 in0.0 mm 0.02 in0.5 mm
12:35 PM 29.1°F-1.6°C 27.3°F-2.6°C 93% Calm Calm -- 29.27 in991.2 mb 0.00 in0.0 mm 0.00 in0.0 mm 0.02 in0.5 mm
12:30 PM 29.2°F-1.6°C 27.3°F-2.6°C 93% 1.0 mph WNW1.6 kmh WNW -- 29.27 in991.2 mb 0.00 in0.0 mm 0.00 in0.0 mm 0.02 in0.5 mm
12:25 PM 29.2°F-1.6°C 27.3°F-2.6°C 93% 2.0 mph WNW3.2 kmh WNW 2.0 mph3.2 kmh 29.27 in991.2 mb 0.00 in0.0 mm 0.00 in0.0 mm 0.02 in0.5 mm
12:20 PM 29.0°F-1.7°C 27.1°F-2.7°C 93% Calm Calm -- 29.27 in991.2 mb 0.00 in0.0 mm 0.00 in0.0 mm 0.02 in0.5 mm
12:15 PM 28.9°F-1.7°C 27.1°F-2.7°C 93% Calm Calm -- 29.26 in990.9 mb 0.00 in0.0 mm 0.00 in0.0 mm 0.02 in0.5 mm
12:10 PM 28.7°F-1.8°C 26.8°F-2.9°C 92% Calm Calm -- 29.26 in990.9 mb 0.00 in0.0 mm 0.00 in0.0 mm 0.02 in0.5 mm
12:05 PM 28.7°F-1.8°C 26.8°F-2.9°C 92% 5.0 mph SE8.0 kmh SE -- 29.26 in990.9 mb 0.00 in0.0 mm 0.00 in0.0 mm 0.02 in0.5 mm
12:00 PM 28.8°F-1.8°C 26.8°F-2.9°C 92% 8.0 mph WSW12.9 kmh WSW 12.0 mph19.3 kmh 29.26 in990.9 mb 0.00 in0.0 mm 0.00 in0.0 mm 0.02 in0.5 mm
11:55 AM 28.8°F-1.8°C 26.8°F-2.9°C 92% 5.0 mph SW8.0 kmh SW -- 29.26 in990.9 mb 0.00 in0.0 mm 0.00 in0.0 mm 0.02 in0.5 mm
11:50 AM 28.7°F-1.8°C 26.8°F-2.9°C 92% Calm Calm -- 29.25 in990.5 mb 0.00 in0.0 mm 0.00 in0.0 mm 0.02 in0.5 mm
11:45 AM 28.7°F-1.8°C 26.8°F-2.9°C 92% Calm Calm -- 29.25 in990.5 mb 0.00 in0.0 mm 0.00 in0.0 mm 0.02 in0.5 mm
11:40 AM 28.7°F-1.8°C 26.8°F-2.9°C 92% 5.0 mph WSW8.0 kmh WSW -- 29.24 in990.2 mb 0.00 in0.0 mm 0.00 in0.0 mm 0.02 in0.5 mm
11:35 AM 28.8°F-1.8°C 26.8°F-2.9°C 92% Calm Calm 6.0 mph9.7 kmh 29.24 in990.2 mb 0.00 in0.0 mm 0.00 in0.0 mm 0.02 in0.5 mm
11:30 AM 28.9°F-1.7°C 27.0°F-2.8°C 92% 1.0 mph W1.6 kmh W -- 29.23 in989.8 mb 0.00 in0.0 mm 0.00 in0.0 mm 0.02 in0.5 mm
11:25 AM 29.0°F-1.7°C 27.0°F-2.8°C 92% 5.0 mph WNW8.0 kmh WNW -- 29.24 in990.2 mb 0.00 in0.0 mm 0.00 in0.0 mm 0.02 in0.5 mm
11:20 AM 29.0°F-1.7°C 27.0°F-2.8°C 92% 1.0 mph W1.6 kmh W -- 29.24 in990.2 mb 0.00 in0.0 mm 0.00 in0.0 mm 0.02 in0.5 mm
11:15 AM 29.0°F-1.7°C 27.0°F-2.8°C 92% 4.0 mph WSW6.4 kmh WSW -- 29.23 in989.8 mb 0.00 in0.0 mm 0.00 in0.0 mm 0.02 in0.5 mm
11:10 AM 28.9°F-1.7°C 27.0°F-2.8°C 92% 3.0 mph SW4.8 kmh SW 9.0 mph14.5 kmh 29.23 in989.8 mb 0.00 in0.0 mm 0.00 in0.0 mm 0.02 in0.5 mm
11:05 AM 28.9°F-1.7°C 27.0°F-2.8°C 92% Calm Calm -- 29.23 in989.8 mb 0.00 in0.0 mm 0.00 in0.0 mm 0.02 in0.5 mm
11:00 AM 29.0°F-1.7°C 27.0°F-2.8°C 92% 4.0 mph WSW6.4 kmh WSW -- 29.22 in989.5 mb 0.00 in0.0 mm 0.00 in0.0 mm 0.02 in0.5 mm
10:55 AM 29.1°F-1.6°C 27.1°F-2.7°C 92% Calm Calm -- 29.22 in989.5 mb 0.00 in0.0 mm 0.00 in0.0 mm 0.02 in0.5 mm
10:50 AM 29.3°F-1.5°C 27.3°F-2.6°C 92% 1.0 mph SW1.6 kmh SW -- 29.23 in989.8 mb 0.00 in0.0 mm 0.00 in0.0 mm 0.02 in0.5 mm
10:45 AM 29.5°F-1.4°C 27.5°F-2.5°C 92% Calm Calm 17.0 mph27.4 kmh 29.23 in989.8 mb 0.00 in0.0 mm 0.00 in0.0 mm 0.02 in0.5 mm
10:40 AM 29.6°F-1.3°C 27.7°F-2.4°C 92% 7.0 mph WSW11.3 kmh WSW -- 29.22 in989.5 mb 0.00 in0.0 mm 0.00 in0.0 mm 0.02 in0.5 mm
10:35 AM 29.7°F-1.3°C 27.7°F-2.4°C 92% 11.0 mph SSW17.7 kmh SSW -- 29.22 in989.5 mb 0.00 in0.0 mm 0.00 in0.0 mm 0.02 in0.5 mm
10:30 AM 29.9°F-1.2°C 27.9°F-2.3°C 92% 5.0 mph WSW8.0 kmh WSW -- 29.22 in989.5 mb 0.00 in0.0 mm 0.00 in0.0 mm 0.02 in0.5 mm
10:25 AM 30.1°F-1.1°C 27.7°F-2.4°C 91% 5.0 mph SW8.0 kmh SW -- 29.22 in989.5 mb 0.00 in0.0 mm 0.00 in0.0 mm 0.02 in0.5 mm
10:20 AM 30.2°F-1.0°C 28.2°F-2.1°C 92% 3.0 mph SW4.8 kmh SW 11.0 mph17.7 kmh 29.21 in989.2 mb 0.00 in0.0 mm 0.00 in0.0 mm 0.02 in0.5 mm
10:15 AM 30.1°F-1.1°C 28.0°F-2.2°C 92% 7.0 mph W11.3 kmh W -- 29.21 in989.2 mb 0.00 in0.0 mm 0.00 in0.0 mm 0.02 in0.5 mm
10:10 AM 29.8°F-1.2°C 27.9°F-2.3°C 92% 2.0 mph SSW3.2 kmh SSW -- 29.21 in989.2 mb 0.00 in0.0 mm 0.00 in0.0 mm 0.02 in0.5 mm
10:05 AM 29.7°F-1.3°C 27.7°F-2.4°C 92% Calm Calm -- 29.21 in989.2 mb 0.00 in0.0 mm 0.00 in0.0 mm 0.02 in0.5 mm
10:00 AM 29.6°F-1.3°C 27.7°F-2.4°C 92% 1.0 mph WNW1.6 kmh WNW -- 29.21 in989.2 mb 0.00 in0.0 mm 0.00 in0.0 mm 0.02 in0.5 mm
09:55 AM 29.6°F-1.3°C 27.7°F-2.4°C 92% 2.0 mph WSW3.2 kmh WSW 10.0 mph16.1 kmh 29.21 in989.2 mb 0.00 in0.0 mm 0.00 in0.0 mm 0.02 in0.5 mm
09:50 AM 29.7°F-1.3°C 27.7°F-2.4°C 92% 4.0 mph NNW6.4 kmh NNW -- 29.21 in989.2 mb 0.00 in0.0 mm 0.00 in0.0 mm 0.02 in0.5 mm
09:45 AM 29.7°F-1.3°C 27.7°F-2.4°C 92% 10.0 mph W16.1 kmh W -- 29.21 in989.2 mb 0.00 in0.0 mm 0.00 in0.0 mm 0.02 in0.5 mm
09:40 AM 29.7°F-1.3°C 27.3°F-2.6°C 91% Calm Calm -- 29.21 in989.2 mb 0.00 in0.0 mm 0.00 in0.0 mm 0.02 in0.5 mm
09:35 AM 30.0°F-1.1°C 27.7°F-2.4°C 91% 4.0 mph NW6.4 kmh NW -- 29.21 in989.2 mb 0.00 in0.0 mm 0.00 in0.0 mm 0.02 in0.5 mm
09:30 AM 30.3°F-0.9°C 27.9°F-2.3°C 90% 3.0 mph WSW4.8 kmh WSW 13.0 mph20.9 kmh 29.20 in988.8 mb 0.00 in0.0 mm 0.00 in0.0 mm 0.02 in0.5 mm
09:25 AM 30.4°F-0.9°C 27.9°F-2.3°C 90% 3.0 mph WSW4.8 kmh WSW -- 29.19 in988.5 mb 0.00 in0.0 mm 0.00 in0.0 mm 0.02 in0.5 mm
09:20 AM 30.3°F-0.9°C 27.5°F-2.5°C 89% 3.0 mph NNW4.8 kmh NNW -- 29.19 in988.5 mb 0.00 in0.0 mm 0.00 in0.0 mm 0.02 in0.5 mm
09:15 AM 30.2°F-1.0°C 27.7°F-2.4°C 90% 4.0 mph WNW6.4 kmh WNW -- 29.18 in988.1 mb 0.00 in0.0 mm 0.00 in0.0 mm 0.02 in0.5 mm
09:10 AM 30.1°F-1.1°C 27.5°F-2.5°C 90% 1.0 mph WSW1.6 kmh WSW -- 29.18 in988.1 mb 0.00 in0.0 mm 0.00 in0.0 mm 0.02 in0.5 mm
09:05 AM 30.2°F-1.0°C 27.7°F-2.4°C 90% 2.0 mph W3.2 kmh W 11.0 mph17.7 kmh 29.18 in988.1 mb 0.00 in0.0 mm 0.00 in0.0 mm 0.02 in0.5 mm
09:00 AM 30.1°F-1.1°C 27.5°F-2.5°C 90% 6.0 mph SW9.7 kmh SW -- 29.18 in988.1 mb 0.00 in0.0 mm 0.00 in0.0 mm 0.02 in0.5 mm
08:55 AM 30.1°F-1.1°C 27.5°F-2.5°C 90% 5.0 mph WSW8.0 kmh WSW -- 29.18 in988.1 mb 0.00 in0.0 mm 0.00 in0.0 mm 0.02 in0.5 mm
08:50 AM 30.2°F-1.0°C 27.9°F-2.3°C 91% 9.0 mph WSW14.5 kmh WSW -- 29.18 in988.1 mb 0.00 in0.0 mm 0.00 in0.0 mm 0.02 in0.5 mm
08:45 AM 30.5°F-0.8°C 28.2°F-2.1°C 91% 2.0 mph W3.2 kmh W -- 29.18 in988.1 mb 0.00 in0.0 mm 0.00 in0.0 mm 0.02 in0.5 mm
08:40 AM 30.8°F-0.7°C 28.8°F-1.8°C 92% 7.0 mph WSW11.3 kmh WSW 13.0 mph20.9 kmh 29.18 in988.1 mb 0.00 in0.0 mm 0.00 in0.0 mm 0.02 in0.5 mm
08:35 AM 30.8°F-0.7°C 28.8°F-1.8°C 92% 6.0 mph SE9.7 kmh SE -- 29.17 in987.8 mb 0.00 in0.0 mm 0.00 in0.0 mm 0.02 in0.5 mm
08:30 AM 30.6°F-0.8°C 28.6°F-1.9°C 92% 5.0 mph W8.0 kmh W -- 29.17 in987.8 mb 0.00 in0.0 mm 0.00 in0.0 mm 0.02 in0.5 mm
08:25 AM 30.4°F-0.9°C 28.4°F-2.0°C 92% 2.0 mph ESE3.2 kmh ESE -- 29.16 in987.5 mb 0.00 in0.0 mm 0.00 in0.0 mm 0.02 in0.5 mm
08:20 AM 30.3°F-0.9°C 28.4°F-2.0°C 92% Calm Calm -- 29.16 in987.5 mb 0.00 in0.0 mm 0.00 in0.0 mm 0.02 in0.5 mm
08:15 AM 30.2°F-1.0°C 28.2°F-2.1°C 92% 2.0 mph NW3.2 kmh NW 13.0 mph20.9 kmh 29.16 in987.5 mb 0.00 in0.0 mm 0.00 in0.0 mm 0.02 in0.5 mm
08:10 AM 30.2°F-1.0°C 27.9°F-2.3°C 91% 5.0 mph NNE8.0 kmh NNE -- 29.16 in987.5 mb 0.00 in0.0 mm 0.00 in0.0 mm 0.02 in0.5 mm
08:05 AM 30.3°F-0.9°C 28.0°F-2.2°C 91% 2.0 mph ESE3.2 kmh ESE -- 29.16 in987.5 mb 0.00 in0.0 mm 0.00 in0.0 mm 0.02 in0.5 mm
08:00 AM 30.6°F-0.8°C 28.2°F-2.1°C 91% 12.0 mph NW19.3 kmh NW -- 29.16 in987.5 mb 0.00 in0.0 mm 0.00 in0.0 mm 0.02 in0.5 mm
07:55 AM 30.7°F-0.7°C 28.4°F-2.0°C 91% 3.0 mph W4.8 kmh W -- 29.15 in987.1 mb 0.00 in0.0 mm 0.00 in0.0 mm 0.02 in0.5 mm
07:50 AM 30.7°F-0.7°C 28.8°F-1.8°C 92% 3.0 mph NW4.8 kmh NW 15.0 mph24.1 kmh 29.15 in987.1 mb 0.00 in0.0 mm 0.00 in0.0 mm 0.02 in0.5 mm
07:45 AM 30.6°F-0.8°C 28.6°F-1.9°C 92% 1.0 mph WSW1.6 kmh WSW -- 29.14 in986.8 mb 0.00 in0.0 mm 0.00 in0.0 mm 0.02 in0.5 mm
07:40 AM 30.5°F-0.8°C 28.6°F-1.9°C 92% 5.0 mph NW8.0 kmh NW -- 29.14 in986.8 mb 0.00 in0.0 mm 0.00 in0.0 mm 0.02 in0.5 mm
07:35 AM 30.4°F-0.9°C 28.4°F-2.0°C 92% 4.0 mph WSW6.4 kmh WSW -- 29.14 in986.8 mb 0.00 in0.0 mm 0.00 in0.0 mm 0.02 in0.5 mm
07:30 AM 30.2°F-1.0°C 28.4°F-2.0°C 93% 12.0 mph WSW19.3 kmh WSW -- 29.14 in986.8 mb 0.00 in0.0 mm 0.00 in0.0 mm 0.02 in0.5 mm
07:25 AM 30.2°F-1.0°C 28.4°F-2.0°C 93% 5.0 mph S8.0 kmh S 11.0 mph17.7 kmh 29.14 in986.8 mb 0.00 in0.0 mm 0.00 in0.0 mm 0.02 in0.5 mm
07:20 AM 30.1°F-1.1°C 28.2°F-2.1°C 93% Calm Calm -- 29.14 in986.8 mb 0.00 in0.0 mm 0.00 in0.0 mm 0.02 in0.5 mm
07:15 AM 29.9°F-1.2°C 28.0°F-2.2°C 93% 4.0 mph NW6.4 kmh NW -- 29.14 in986.8 mb 0.00 in0.0 mm 0.00 in0.0 mm 0.02 in0.5 mm
07:10 AM 29.8°F-1.2°C 28.0°F-2.2°C 93% Calm Calm -- 29.14 in986.8 mb 0.00 in0.0 mm 0.00 in0.0 mm 0.02 in0.5 mm
07:05 AM 29.9°F-1.2°C 27.9°F-2.3°C 92% 6.0 mph NW9.7 kmh NW -- 29.14 in986.8 mb 0.00 in0.0 mm 0.00 in0.0 mm 0.02 in0.5 mm
07:00 AM 30.1°F-1.1°C 28.0°F-2.2°C 92% 11.0 mph NE17.7 kmh NE 11.0 mph17.7 kmh 29.14 in986.8 mb 0.00 in0.0 mm 0.00 in0.0 mm 0.02 in0.5 mm
06:55 AM 30.2°F-1.0°C 27.9°F-2.3°C 91% Calm Calm -- 29.13 in986.5 mb 0.00 in0.0 mm 0.00 in0.0 mm 0.02 in0.5 mm
06:50 AM 30.3°F-0.9°C 28.0°F-2.2°C 91% 3.0 mph WSW4.8 kmh WSW -- 29.13 in986.5 mb 0.00 in0.0 mm 0.00 in0.0 mm 0.02 in0.5 mm
06:45 AM 30.6°F-0.8°C 28.0°F-2.2°C 90% 5.0 mph SSE8.0 kmh SSE -- 29.13 in986.5 mb 0.00 in0.0 mm 0.00 in0.0 mm 0.02 in0.5 mm
06:40 AM 30.8°F-0.7°C 28.4°F-2.0°C 91% 9.0 mph W14.5 kmh W -- 29.12 in986.1 mb 0.00 in0.0 mm 0.00 in0.0 mm 0.02 in0.5 mm
06:35 AM 30.8°F-0.7°C 28.4°F-2.0°C 91% 2.0 mph S3.2 kmh S 21.0 mph33.8 kmh 29.12 in986.1 mb 0.00 in0.0 mm 0.00 in0.0 mm 0.02 in0.5 mm
06:30 AM 30.8°F-0.7°C 28.4°F-2.0°C 91% 9.0 mph W14.5 kmh W -- 29.11 in985.8 mb 0.00 in0.0 mm 0.00 in0.0 mm 0.02 in0.5 mm
06:25 AM 30.6°F-0.8°C 28.6°F-1.9°C 92% 3.0 mph SW4.8 kmh SW -- 29.11 in985.8 mb 0.00 in0.0 mm 0.00 in0.0 mm 0.02 in0.5 mm
06:20 AM 30.5°F-0.8°C 28.2°F-2.1°C 91% 3.0 mph W4.8 kmh W -- 29.11 in985.8 mb 0.00 in0.0 mm 0.00 in0.0 mm 0.02 in0.5 mm
06:15 AM 30.7°F-0.7°C 28.4°F-2.0°C 91% Calm Calm -- 29.11 in985.8 mb 0.00 in0.0 mm 0.00 in0.0 mm 0.02 in0.5 mm
06:10 AM 30.9°F-0.6°C 28.6°F-1.9°C 91% 4.0 mph WSW6.4 kmh WSW 13.0 mph20.9 kmh 29.11 in985.8 mb 0.00 in0.0 mm 0.00 in0.0 mm 0.02 in0.5 mm
06:05 AM 30.8°F-0.7°C 28.8°F-1.8°C 92% 4.0 mph SW6.4 kmh SW -- 29.11 in985.8 mb 0.00 in0.0 mm 0.00 in0.0 mm 0.02 in0.5 mm
06:00 AM 30.8°F-0.7°C 28.8°F-1.8°C 92% 6.0 mph WSW9.7 kmh WSW -- 29.10 in985.4 mb 0.00 in0.0 mm 0.00 in0.0 mm 0.02 in0.5 mm
05:55 AM 30.8°F-0.7°C 28.8°F-1.8°C 92% 1.0 mph WNW1.6 kmh WNW -- 29.10 in985.4 mb 0.00 in0.0 mm 0.00 in0.0 mm 0.02 in0.5 mm
05:50 AM 30.9°F-0.6°C 28.9°F-1.7°C 92% Calm Calm -- 29.10 in985.4 mb 0.00 in0.0 mm 0.00 in0.0 mm 0.02 in0.5 mm
05:45 AM 31.0°F-0.6°C 29.1°F-1.6°C 93% 6.0 mph SW9.7 kmh SW 11.0 mph17.7 kmh 29.09 in985.1 mb 0.00 in0.0 mm 0.00 in0.0 mm 0.02 in0.5 mm
05:40 AM 31.0°F-0.6°C 28.9°F-1.7°C 92% 4.0 mph WSW6.4 kmh WSW -- 29.09 in985.1 mb 0.00 in0.0 mm 0.00 in0.0 mm 0.02 in0.5 mm
05:35 AM 31.1°F-0.5°C 29.1°F-1.6°C 92% 3.0 mph WSW4.8 kmh WSW -- 29.10 in985.4 mb 0.00 in0.0 mm 0.00 in0.0 mm 0.02 in0.5 mm
05:30 AM 31.1°F-0.5°C 29.1°F-1.6°C 92% 1.0 mph W1.6 kmh W -- 29.10 in985.4 mb 0.00 in0.0 mm 0.00 in0.0 mm 0.02 in0.5 mm
05:25 AM 31.2°F-0.4°C 29.3°F-1.5°C 92% 8.0 mph WSW12.9 kmh WSW -- 29.10 in985.4 mb 0.00 in0.0 mm 0.00 in0.0 mm 0.02 in0.5 mm
05:20 AM 31.2°F-0.4°C 29.3°F-1.5°C 92% 4.0 mph SW6.4 kmh SW 7.0 mph11.3 kmh 29.09 in985.1 mb 0.00 in0.0 mm 0.00 in0.0 mm 0.02 in0.5 mm
05:15 AM 31.2°F-0.4°C 29.3°F-1.5°C 92% Calm Calm -- 29.09 in985.1 mb 0.00 in0.0 mm 0.00 in0.0 mm 0.02 in0.5 mm
05:10 AM 31.2°F-0.4°C 29.3°F-1.5°C 92% 2.0 mph W3.2 kmh W -- 29.08 in984.8 mb 0.00 in0.0 mm 0.00 in0.0 mm 0.02 in0.5 mm
05:05 AM 31.4°F-0.3°C 29.1°F-1.6°C 91% 2.0 mph WSW3.2 kmh WSW -- 29.08 in984.8 mb 0.00 in0.0 mm 0.00 in0.0 mm 0.02 in0.5 mm
05:00 AM 31.6°F-0.2°C 29.3°F-1.5°C 91% 6.0 mph SW9.7 kmh SW -- 29.08 in984.8 mb 0.00 in0.0 mm 0.00 in0.0 mm 0.02 in0.5 mm
04:55 AM 31.7°F-0.2°C 29.3°F-1.5°C 91% 2.0 mph WSW3.2 kmh WSW 9.0 mph14.5 kmh 29.07 in984.4 mb 0.00 in0.0 mm 0.00 in0.0 mm 0.02 in0.5 mm
04:50 AM 31.5°F-0.3°C 29.1°F-1.6°C 91% 3.0 mph WNW4.8 kmh WNW -- 29.08 in984.8 mb 0.00 in0.0 mm 0.00 in0.0 mm 0.02 in0.5 mm
04:45 AM 31.5°F-0.3°C 29.1°F-1.6°C 91% 3.0 mph WSW4.8 kmh WSW -- 29.07 in984.4 mb 0.00 in0.0 mm 0.00 in0.0 mm 0.02 in0.5 mm
04:40 AM 31.5°F-0.3°C 29.1°F-1.6°C 91% 2.0 mph WSW3.2 kmh WSW -- 29.07 in984.4 mb 0.00 in0.0 mm 0.00 in0.0 mm 0.02 in0.5 mm
04:35 AM 31.6°F-0.2°C 29.3°F-1.5°C 91% 1.0 mph WSW1.6 kmh WSW -- 29.07 in984.4 mb 0.00 in0.0 mm 0.00 in0.0 mm 0.02 in0.5 mm
04:30 AM 31.9°F-0.1°C 29.3°F-1.5°C 90% 4.0 mph WSW6.4 kmh WSW 10.0 mph16.1 kmh 29.07 in984.4 mb 0.00 in0.0 mm 0.00 in0.0 mm 0.02 in0.5 mm
04:25 AM 32.0°F0.0°C 29.7°F-1.3°C 91% 3.0 mph NW4.8 kmh NW -- 29.07 in984.4 mb 0.00 in0.0 mm 0.00 in0.0 mm 0.02 in0.5 mm
04:20 AM 32.2°F0.1°C 29.8°F-1.2°C 91% 2.0 mph WNW3.2 kmh WNW -- 29.07 in984.4 mb 0.00 in0.0 mm 0.00 in0.0 mm 0.02 in0.5 mm
04:15 AM 32.0°F0.0°C 30.0°F-1.1°C 92% 7.0 mph NNW11.3 kmh NNW -- 29.07 in984.4 mb 0.00 in0.0 mm 0.00 in0.0 mm 0.02 in0.5 mm
04:10 AM 32.1°F0.1°C 30.2°F-1.0°C 92% 6.0 mph W9.7 kmh W -- 29.07 in984.4 mb 0.00 in0.0 mm 0.00 in0.0 mm 0.02 in0.5 mm
04:05 AM 32.4°F0.2°C 30.4°F-0.9°C 92% 5.0 mph E8.0 kmh E 10.0 mph16.1 kmh 29.07 in984.4 mb 0.00 in0.0 mm 0.00 in0.0 mm 0.02 in0.5 mm
04:00 AM 32.6°F0.3°C 30.6°F-0.8°C 92% Calm Calm -- 29.06 in984.1 mb 0.00 in0.0 mm 0.00 in0.0 mm 0.02 in0.5 mm
03:55 AM 32.4°F0.2°C 30.6°F-0.8°C 93% 8.0 mph NNW12.9 kmh NNW -- 29.05 in983.7 mb 0.00 in0.0 mm 0.00 in0.0 mm 0.02 in0.5 mm
03:50 AM 32.4°F0.2°C 30.6°F-0.8°C 93% 4.0 mph NNE6.4 kmh NNE -- 29.05 in983.7 mb 0.00 in0.0 mm 0.00 in0.0 mm 0.02 in0.5 mm
03:45 AM 32.0°F0.0°C 30.6°F-0.8°C 94% 4.0 mph NW6.4 kmh NW -- 29.05 in983.7 mb 0.00 in0.0 mm 0.00 in0.0 mm 0.02 in0.5 mm
03:40 AM 31.9°F-0.1°C 30.4°F-0.9°C 94% 6.0 mph WNW9.7 kmh WNW 19.0 mph30.6 kmh 29.05 in983.7 mb 0.00 in0.0 mm 0.00 in0.0 mm 0.02 in0.5 mm
03:35 AM 31.7°F-0.2°C 30.2°F-1.0°C 94% 7.0 mph NW11.3 kmh NW -- 29.05 in983.7 mb 0.00 in0.0 mm 0.00 in0.0 mm 0.02 in0.5 mm
03:30 AM 31.6°F-0.2°C 30.2°F-1.0°C 94% 4.0 mph WSW6.4 kmh WSW -- 29.05 in983.7 mb 0.00 in0.0 mm 0.00 in0.0 mm 0.02 in0.5 mm
03:25 AM 31.4°F-0.3°C 30.0°F-1.1°C 94% 8.0 mph WSW12.9 kmh WSW -- 29.05 in983.7 mb 0.00 in0.0 mm 0.00 in0.0 mm 0.02 in0.5 mm
03:20 AM 31.2°F-0.4°C 29.8°F-1.2°C 94% 6.0 mph NNW9.7 kmh NNW -- 29.04 in983.4 mb 0.00 in0.0 mm 0.00 in0.0 mm 0.02 in0.5 mm
03:15 AM 31.0°F-0.6°C 29.5°F-1.4°C 94% 4.0 mph WNW6.4 kmh WNW 11.0 mph17.7 kmh 29.04 in983.4 mb 0.00 in0.0 mm 0.00 in0.0 mm 0.02 in0.5 mm
03:10 AM 31.0°F-0.6°C 29.5°F-1.4°C 94% 4.0 mph W6.4 kmh W -- 29.04 in983.4 mb 0.00 in0.0 mm 0.00 in0.0 mm 0.02 in0.5 mm
03:05 AM 31.3°F-0.4°C 30.0°F-1.1°C 95% 2.0 mph NW3.2 kmh NW -- 29.04 in983.4 mb 0.00 in0.0 mm 0.00 in0.0 mm 0.02 in0.5 mm
03:00 AM 31.5°F-0.3°C 30.2°F-1.0°C 95% 9.0 mph W14.5 kmh W -- 29.04 in983.4 mb 0.00 in0.0 mm 0.00 in0.0 mm 0.02 in0.5 mm
02:55 AM 31.5°F-0.3°C 30.2°F-1.0°C 95% 2.0 mph W3.2 kmh W -- 29.04 in983.4 mb 0.01 in0.3 mm 0.00 in0.0 mm 0.02 in0.5 mm
02:50 AM 31.4°F-0.3°C 30.2°F-1.0°C 95% 7.0 mph NW11.3 kmh NW 15.0 mph24.1 kmh 29.03 in983.1 mb 0.01 in0.3 mm 0.00 in0.0 mm 0.02 in0.5 mm
02:45 AM 31.2°F-0.4°C 29.8°F-1.2°C 94% 2.0 mph E3.2 kmh E -- 29.02 in982.7 mb 0.01 in0.3 mm 0.00 in0.0 mm 0.02 in0.5 mm
02:40 AM 31.3°F-0.4°C 29.8°F-1.2°C 94% 5.0 mph S8.0 kmh S -- 29.02 in982.7 mb 0.01 in0.3 mm 0.00 in0.0 mm 0.02 in0.5 mm
02:35 AM 31.4°F-0.3°C 30.0°F-1.1°C 94% 3.0 mph WNW4.8 kmh WNW -- 29.02 in982.7 mb 0.01 in0.3 mm 0.00 in0.0 mm 0.02 in0.5 mm
02:30 AM 31.5°F-0.3°C 30.0°F-1.1°C 94% 4.0 mph SSE6.4 kmh SSE -- 29.02 in982.7 mb 0.01 in0.3 mm 0.00 in0.0 mm 0.02 in0.5 mm
02:25 AM 31.6°F-0.2°C 30.2°F-1.0°C 94% 4.0 mph WNW6.4 kmh WNW 17.0 mph27.4 kmh 29.02 in982.7 mb 0.01 in0.3 mm 0.00 in0.0 mm 0.02 in0.5 mm
02:20 AM 31.8°F-0.1°C 30.4°F-0.9°C 94% 5.0 mph SW8.0 kmh SW -- 29.01 in982.4 mb 0.01 in0.3 mm 0.00 in0.0 mm 0.02 in0.5 mm
02:15 AM 31.9°F-0.1°C 30.4°F-0.9°C 94% 3.0 mph NW4.8 kmh NW -- 29.00 in982.1 mb 0.01 in0.3 mm 0.00 in0.0 mm 0.02 in0.5 mm
02:10 AM 31.9°F-0.1°C 30.6°F-0.8°C 95% 5.0 mph WNW8.0 kmh WNW -- 29.00 in982.1 mb 0.01 in0.3 mm 0.00 in0.0 mm 0.02 in0.5 mm
02:05 AM 31.8°F-0.1°C 30.4°F-0.9°C 94% 2.0 mph WNW3.2 kmh WNW -- 28.99 in981.7 mb 0.01 in0.3 mm 0.00 in0.0 mm 0.02 in0.5 mm
02:00 AM 31.9°F-0.1°C 30.4°F-0.9°C 94% 3.0 mph N4.8 kmh N 16.0 mph25.7 kmh 28.99 in981.7 mb 0.01 in0.3 mm 0.00 in0.0 mm 0.02 in0.5 mm
01:55 AM 32.1°F0.1°C 30.7°F-0.7°C 94% 2.0 mph SW3.2 kmh SW -- 28.99 in981.7 mb 0.01 in0.3 mm 0.12 in3.0 mm 0.02 in0.5 mm
01:50 AM 32.1°F0.1°C 30.7°F-0.7°C 94% 6.0 mph NW9.7 kmh NW -- 28.98 in981.4 mb 0.00 in0.0 mm 0.00 in0.0 mm 0.01 in0.3 mm
01:45 AM 32.1°F0.1°C 30.7°F-0.7°C 94% 5.0 mph NW8.0 kmh NW -- 28.98 in981.4 mb 0.00 in0.0 mm 0.00 in0.0 mm 0.01 in0.3 mm
01:40 AM 32.2°F0.1°C 30.7°F-0.7°C 94% 8.0 mph W12.9 kmh W -- 28.98 in981.4 mb 0.00 in0.0 mm 0.00 in0.0 mm 0.01 in0.3 mm
01:35 AM 32.2°F0.1°C 30.7°F-0.7°C 94% 1.0 mph NW1.6 kmh NW 17.0 mph27.4 kmh 28.97 in981.0 mb 0.01 in0.3 mm 0.00 in0.0 mm 0.01 in0.3 mm
01:30 AM 32.1°F0.1°C 30.7°F-0.7°C 94% 2.0 mph SSW3.2 kmh SSW -- 28.96 in980.7 mb 0.01 in0.3 mm 0.00 in0.0 mm 0.01 in0.3 mm
01:25 AM 32.2°F0.1°C 30.7°F-0.7°C 94% 13.0 mph W20.9 kmh W -- 28.96 in980.7 mb 0.01 in0.3 mm 0.00 in0.0 mm 0.01 in0.3 mm
01:20 AM 32.3°F0.2°C 30.7°F-0.7°C 94% 6.0 mph WSW9.7 kmh WSW -- 28.97 in981.0 mb 0.01 in0.3 mm 0.00 in0.0 mm 0.01 in0.3 mm
01:15 AM 32.4°F0.2°C 30.7°F-0.7°C 94% 4.0 mph W6.4 kmh W -- 28.95 in980.4 mb 0.01 in0.3 mm 0.00 in0.0 mm 0.01 in0.3 mm
01:10 AM 32.4°F0.2°C 30.7°F-0.7°C 94% 5.0 mph WNW8.0 kmh WNW 20.0 mph32.2 kmh 28.95 in980.4 mb 0.01 in0.3 mm 0.00 in0.0 mm 0.01 in0.3 mm
01:05 AM 32.4°F0.2°C 30.7°F-0.7°C 94% 5.0 mph WNW8.0 kmh WNW -- 28.95 in980.4 mb 0.01 in0.3 mm 0.00 in0.0 mm 0.01 in0.3 mm
01:00 AM 32.4°F0.2°C 30.7°F-0.7°C 94% 3.0 mph NW4.8 kmh NW -- 28.94 in980.0 mb 0.01 in0.3 mm 0.00 in0.0 mm 0.01 in0.3 mm
12:55 AM 32.5°F0.3°C 30.9°F-0.6°C 94% 3.0 mph W4.8 kmh W -- 28.94 in980.0 mb 0.01 in0.3 mm 0.00 in0.0 mm 0.01 in0.3 mm
12:50 AM 32.5°F0.3°C 31.3°F-0.4°C 95% 4.0 mph WSW6.4 kmh WSW -- 28.93 in979.7 mb 0.01 in0.3 mm 0.00 in0.0 mm 0.01 in0.3 mm
12:45 AM 32.4°F0.2°C 30.7°F-0.7°C 94% 4.0 mph NW6.4 kmh NW 18.0 mph29.0 kmh 28.92 in979.3 mb 0.01 in0.3 mm 0.00 in0.0 mm 0.01 in0.3 mm
12:40 AM 32.4°F0.2°C 30.7°F-0.7°C 94% 6.0 mph WSW9.7 kmh WSW -- 28.92 in979.3 mb 0.01 in0.3 mm 0.12 in3.0 mm 0.01 in0.3 mm
12:35 AM 32.4°F0.2°C 30.7°F-0.7°C 94% 8.0 mph WSW12.9 kmh WSW -- 28.92 in979.3 mb 0.00 in0.0 mm 0.00 in0.0 mm 0.00 in0.0 mm
12:30 AM 32.5°F0.3°C 30.9°F-0.6°C 94% 8.0 mph WNW12.9 kmh WNW -- 28.91 in979.0 mb 0.00 in0.0 mm 0.00 in0.0 mm 0.00 in0.0 mm
12:25 AM 32.5°F0.3°C 30.9°F-0.6°C 94% 10.0 mph W16.1 kmh W -- 28.91 in979.0 mb 0.00 in0.0 mm 0.00 in0.0 mm 0.00 in0.0 mm
12:20 AM 32.5°F0.3°C 30.9°F-0.6°C 94% 3.0 mph NE4.8 kmh NE 21.0 mph33.8 kmh 28.91 in979.0 mb 0.00 in0.0 mm 0.00 in0.0 mm 0.00 in0.0 mm
12:15 AM 32.7°F0.4°C 31.1°F-0.5°C 94% 6.0 mph SW9.7 kmh SW -- 28.90 in978.7 mb 0.00 in0.0 mm 0.00 in0.0 mm 0.00 in0.0 mm
12:10 AM 32.9°F0.5°C 31.3°F-0.4°C 94% 2.0 mph W3.2 kmh W -- 28.90 in978.7 mb 0.00 in0.0 mm 0.00 in0.0 mm 0.00 in0.0 mm
12:05 AM 32.9°F0.5°C 31.3°F-0.4°C 94% 2.0 mph SW3.2 kmh SW -- 28.89 in978.3 mb 0.00 in0.0 mm 0.00 in0.0 mm 0.00 in0.0 mm
12:00 AM 32.9°F0.5°C 31.3°F-0.4°C 94% 9.0 mph WNW14.5 kmh WNW -- 28.89 in978.3 mb 0.00 in0.0 mm 0.00 in0.0 mm 0.00 in0.0 mm